LOWSLSZS

Guest
Details From LOWS - Salzburg Maxglan
To LSZS - Samedan
Flight Number -
Tags generated
Created
Modified
Stats Distance 148 nm / 274 km
Max Altitude 18,100 ft / 5,517 m
Waypoints 3
Social Downloads 2
Likes 0
Share VATSIM

Download

Looking for another format? Having issues loading an existing format? Contact us
Advertisement - Login to hide

Notes

Basic altitude profile: - Ascent Rate: 2500ft/min - Ascent Speed: 250kts - Cruise Altitude: 35000ft - Cruise Speed: 420kts - Descent Rate: 1500ft/min - Descent Speed: 250kts Options: - Use NATs: yes - Use PACOTS: yes - Use low airways: yes - Use high airways: yes

Route

LOWS BIRGI LSZS

ID Type Via Altitude Latitude Longitude Leg Dist Tot Dist Heading (true) Name
O LOWS APT - 0 ft / 0 m 47.79333˚ 13.00433˚ - 0 nm - Salzburg Maxglan
BIRGI FIX - 18,100 ft / 5,517 m 47.34778˚ 11.94056˚ 50 nm 50 nm 239° / 238° -
O LSZS APT - 0 ft / 0 m 46.53421˚ 9.88394˚ 97 nm 148 nm 241° / 239° Samedan

Altitude Profile

Advertisement - Login to hide

LOWS

Details ICAO LOWS (SZG)
Name Salzburg Maxglan
Region Austria
Timezone Europe/Vienna (UTC+1.0)
Stats Elevation 1,411 ft / 430 m (AMSL)
Location 47.793333° 13.004333°
Runways 1
Magnetic Variation 3.427° E

METAR

LOWS 130850Z 16009KT CAVOK 00/M01 Q1018 NOSIG

Decode

TAF

TAF LOWS 130515Z 1306/1406 15005KT CAVOK TX03/1312Z TNM03/1306Z PROB30 TEMPO 1306/1308 0500 FZBCFG NSC BECMG 1318/1320 9999 FEW080 BKN100 PROB30 TEMPO 1400/1406 -FZRA FEW030 BKN050

Decode

Departure Runways

ID Width Length Bearing (true) Bearing (mag) Surface Threshold Offset Overrun Length
16 148 ft / 45 m 9,024 ft / 2,751 m 157.08° 153.65° Concrete 656 ft / 200 m 0 ft / 0 m
34 148 ft / 45 m 9,024 ft / 2,751 m 337.09° 333.66° Concrete 787 ft / 240 m 0 ft / 0 m

LSZS

Details ICAO LSZS (SMV)
Name Samedan
Region Switzerland
Timezone Europe/Zurich (UTC+1.0)
Stats Elevation 5,600 ft / 1,707 m (AMSL)
Location 46.534207° 9.883938°
Runways 1
Magnetic Variation 2.656° E

METAR

LSZS 130850Z 01001KT CAVOK M14/M16 Q1015 RMK E

Decode

TAF

Not found

Destination Runways

ID Width Length Bearing (true) Bearing (mag) Surface Threshold Offset Overrun Length
03 131 ft / 40 m 6,059 ft / 1,847 m 29.10° 26.44° Asphalt 0 ft / 0 m 0 ft / 0 m
21 131 ft / 40 m 6,059 ft / 1,847 m 209.10° 206.44° Asphalt 361 ft / 110 m 0 ft / 0 m